Anzahl Datensätze: 144
min. Temperatur: 6.3 °C
max. Temperatur: 7.5 °C
max. Windgeschwindigkeit: 20.9 km/h
Niederschlagsumme: 0.0 mm
| Datum |
Zeit |
Temp °C |
Feuchte % |
Taupunkt °C |
Luftdruck hPa |
Wind km/h |
Windrichtung |
Strahlung w/m² |
Niederschlag mm |
|---|---|---|---|---|---|---|---|---|---|
| 12.12.2025 | 00:00 | 7.5 | 92 | 6.3 | 1022.0 | 1.4 | OSO | 0 | 0.0 |
| 12.12.2025 | 00:10 | 7.5 | 92 | 6.3 | 1022.0 | 0.0 | OSO | 0 | 0.0 |
| 12.12.2025 | 00:20 | 7.4 | 92 | 6.2 | 1021.9 | 1.4 | OSO | 0 | 0.0 |
| 12.12.2025 | 00:30 | 7.3 | 93 | 6.2 | 1021.8 | 1.4 | O | 0 | 0.0 |
| 12.12.2025 | 00:40 | 7.2 | 93 | 6.1 | 1021.9 | 0.0 | O | 0 | 0.0 |
| 12.12.2025 | 00:50 | 7.1 | 93 | 6.0 | 1021.8 | 0.0 | OSO | 0 | 0.0 |
| 12.12.2025 | 01:00 | 7.0 | 93 | 5.9 | 1021.7 | 0.0 | OSO | 0 | 0.0 |
| 12.12.2025 | 01:10 | 6.9 | 94 | 6.0 | 1021.5 | 0.0 | O | 0 | 0.0 |
| 12.12.2025 | 01:20 | 6.9 | 94 | 6.0 | 1021.5 | 0.0 | O | 0 | 0.0 |
| 12.12.2025 | 01:30 | 6.8 | 94 | 5.9 | 1021.5 | 0.0 | OSO | 0 | 0.0 |
| 12.12.2025 | 01:40 | 6.7 | 94 | 5.8 | 1021.4 | 0.0 | OSO | 0 | 0.0 |
| 12.12.2025 | 01:50 | 6.7 | 94 | 5.8 | 1021.4 | 0.0 | OSO | 0 | 0.0 |
| 12.12.2025 | 02:00 | 6.7 | 94 | 5.8 | 1021.3 | 0.0 | O | 0 | 0.0 |
| 12.12.2025 | 02:10 | 6.7 | 94 | 5.8 | 1021.2 | 0.0 | O | 0 | 0.0 |
| 12.12.2025 | 02:20 | 6.6 | 95 | 5.9 | 1021.3 | 0.0 | SO | 0 | 0.0 |
| 12.12.2025 | 02:30 | 6.6 | 94 | 5.7 | 1021.3 | 0.0 | SO | 0 | 0.0 |
| 12.12.2025 | 02:40 | 6.4 | 95 | 5.7 | 1021.4 | 0.0 | SO | 0 | 0.0 |
| 12.12.2025 | 02:50 | 6.4 | 95 | 5.7 | 1021.4 | 0.0 | SO | 0 | 0.0 |
| 12.12.2025 | 03:00 | 6.4 | 95 | 5.7 | 1021.3 | 0.0 | SO | 0 | 0.0 |
| 12.12.2025 | 03:10 | 6.4 | 95 | 5.7 | 1021.5 | 0.0 | SO | 0 | 0.0 |
| 12.12.2025 | 03:20 | 6.4 | 95 | 5.7 | 1021.4 | 0.0 | SO | 0 | 0.0 |
| 12.12.2025 | 03:30 | 6.5 | 95 | 5.8 | 1021.4 | 1.4 | OSO | 0 | 0.0 |
| 12.12.2025 | 03:40 | 6.6 | 95 | 5.9 | 1021.2 | 0.0 | SO | 0 | 0.0 |
| 12.12.2025 | 03:50 | 6.6 | 95 | 5.9 | 1021.3 | 0.0 | SO | 0 | 0.0 |
| 12.12.2025 | 04:00 | 6.6 | 95 | 5.9 | 1021.3 | 0.0 | SO | 0 | 0.0 |
| 12.12.2025 | 04:10 | 6.7 | 95 | 6.0 | 1021.2 | 1.4 | OSO | 0 | 0.0 |
| 12.12.2025 | 04:20 | 6.7 | 95 | 6.0 | 1021.3 | 3.2 | SO | 0 | 0.0 |
| 12.12.2025 | 04:30 | 6.7 | 95 | 6.0 | 1021.3 | 1.4 | SSO | 0 | 0.0 |
| 12.12.2025 | 04:40 | 6.7 | 95 | 6.0 | 1021.2 | 3.2 | SO | 0 | 0.0 |
| 12.12.2025 | 04:50 | 6.7 | 95 | 6.0 | 1021.1 | 3.2 | OSO | 0 | 0.0 |
| 12.12.2025 | 05:00 | 6.7 | 95 | 6.0 | 1021.2 | 1.4 | OSO | 0 | 0.0 |
| 12.12.2025 | 05:10 | 6.7 | 96 | 6.1 | 1021.3 | 0.0 | SO | 0 | 0.0 |
| 12.12.2025 | 05:20 | 6.8 | 96 | 6.2 | 1021.2 | 0.0 | SO | 0 | 0.0 |
| 12.12.2025 | 05:30 | 6.8 | 96 | 6.2 | 1021.2 | 1.4 | OSO | 0 | 0.0 |
| 12.12.2025 | 05:40 | 6.7 | 96 | 6.1 | 1021.2 | 1.4 | O | 0 | 0.0 |
| 12.12.2025 | 05:50 | 6.7 | 96 | 6.1 | 1021.3 | 1.4 | SO | 0 | 0.0 |
| 12.12.2025 | 06:00 | 6.8 | 96 | 6.2 | 1021.4 | 0.0 | SO | 0 | 0.0 |
| 12.12.2025 | 06:10 | 6.7 | 96 | 6.1 | 1021.3 | 0.0 | SO | 0 | 0.0 |
| 12.12.2025 | 06:20 | 6.7 | 96 | 6.1 | 1021.3 | 0.0 | SO | 0 | 0.0 |
| 12.12.2025 | 06:30 | 6.7 | 96 | 6.1 | 1021.4 | 0.0 | OSO | 0 | 0.0 |
| 12.12.2025 | 06:40 | 6.7 | 96 | 6.1 | 1021.4 | 1.4 | OSO | 0 | 0.0 |
| 12.12.2025 | 06:50 | 6.7 | 96 | 6.1 | 1021.4 | 0.0 | SO | 0 | 0.0 |
| 12.12.2025 | 07:00 | 6.7 | 96 | 6.1 | 1021.6 | 1.4 | SO | 0 | 0.0 |
| 12.12.2025 | 07:10 | 6.7 | 96 | 6.1 | 1021.5 | 0.0 | SO | 0 | 0.0 |
| 12.12.2025 | 07:20 | 6.7 | 96 | 6.1 | 1021.6 | 1.4 | SO | 0 | 0.0 |
| 12.12.2025 | 07:30 | 6.6 | 96 | 6.0 | 1021.8 | 1.4 | SO | 0 | 0.0 |
| 12.12.2025 | 07:40 | 6.6 | 96 | 6.0 | 1021.8 | 1.4 | SO | 0 | 0.0 |
| 12.12.2025 | 07:50 | 6.6 | 96 | 6.0 | 1021.9 | 1.4 | SSO | 0 | 0.0 |
| 12.12.2025 | 08:00 | 6.5 | 96 | 5.9 | 1021.9 | 3.2 | SO | 0 | 0.0 |
| 12.12.2025 | 08:10 | 6.4 | 96 | 5.8 | 1022.1 | 1.4 | SO | 0 | 0.0 |
| 12.12.2025 | 08:20 | 6.4 | 96 | 5.8 | 1022.0 | 1.4 | SSO | 0 | 0.0 |
| 12.12.2025 | 08:30 | 6.4 | 96 | 5.8 | 1022.1 | 1.4 | SSO | 0 | 0.0 |
| 12.12.2025 | 08:40 | 6.4 | 96 | 5.8 | 1022.3 | 1.4 | SO | 0 | 0.0 |
| 12.12.2025 | 08:50 | 6.4 | 96 | 5.8 | 1022.4 | 1.4 | OSO | 5 | 0.0 |
| 12.12.2025 | 09:00 | 6.4 | 96 | 5.8 | 1022.4 | 1.4 | SO | 12 | 0.0 |
| 12.12.2025 | 09:10 | 6.3 | 96 | 5.7 | 1022.4 | 3.2 | SO | 16 | 0.0 |
| 12.12.2025 | 09:20 | 6.3 | 96 | 5.7 | 1022.4 | 3.2 | SO | 19 | 0.0 |
| 12.12.2025 | 09:30 | 6.3 | 96 | 5.7 | 1022.2 | 4.7 | SO | 25 | 0.0 |
| 12.12.2025 | 09:40 | 6.3 | 96 | 5.7 | 1022.6 | 1.4 | OSO | 30 | 0.0 |
| 12.12.2025 | 09:50 | 6.3 | 96 | 5.7 | 1022.6 | 1.4 | SO | 37 | 0.0 |
| 12.12.2025 | 10:00 | 6.3 | 96 | 5.7 | 1022.7 | 1.4 | SSO | 37 | 0.0 |
| 12.12.2025 | 10:10 | 6.3 | 97 | 5.9 | 1022.8 | 3.2 | OSO | 56 | 0.0 |
| 12.12.2025 | 10:20 | 6.4 | 97 | 6.0 | 1022.8 | 3.2 | SSO | 51 | 0.0 |
| 12.12.2025 | 10:30 | 6.4 | 97 | 6.0 | 1023.0 | 1.4 | O | 54 | 0.0 |
| 12.12.2025 | 10:40 | 6.6 | 97 | 6.2 | 1023.2 | 1.4 | SSO | 56 | 0.0 |
| 12.12.2025 | 10:50 | 6.6 | 97 | 6.2 | 1023.0 | 0.0 | SO | 42 | 0.0 |
| 12.12.2025 | 11:00 | 6.6 | 97 | 6.2 | 1023.1 | 0.0 | SSO | 46 | 0.0 |
| 12.12.2025 | 11:10 | 6.7 | 97 | 6.3 | 1023.3 | 0.0 | SSO | 42 | 0.0 |
| 12.12.2025 | 11:20 | 6.5 | 97 | 6.1 | 1023.4 | 1.4 | SO | 37 | 0.0 |
| 12.12.2025 | 11:30 | 6.6 | 97 | 6.2 | 1023.5 | 0.0 | W | 46 | 0.0 |
| 12.12.2025 | 11:40 | 6.6 | 97 | 6.2 | 1023.6 | 1.4 | SSO | 46 | 0.0 |
| 12.12.2025 | 11:50 | 6.4 | 97 | 6.0 | 1023.5 | 3.2 | SO | 54 | 0.0 |
| 12.12.2025 | 12:00 | 6.5 | 97 | 6.1 | 1023.4 | 1.4 | SSO | 49 | 0.0 |
| 12.12.2025 | 12:10 | 6.5 | 97 | 6.1 | 1023.4 | 0.0 | SO | 46 | 0.0 |
| 12.12.2025 | 12:20 | 6.6 | 97 | 6.2 | 1023.3 | 0.0 | OSO | 42 | 0.0 |
| 12.12.2025 | 12:30 | 6.5 | 97 | 6.1 | 1023.3 | 1.4 | OSO | 56 | 0.0 |
| 12.12.2025 | 12:40 | 6.4 | 97 | 6.0 | 1023.3 | 3.2 | SSO | 67 | 0.0 |
| 12.12.2025 | 12:50 | 6.5 | 97 | 6.1 | 1023.3 | 0.0 | SSO | 53 | 0.0 |
| 12.12.2025 | 13:00 | 6.6 | 97 | 6.2 | 1023.2 | 0.0 | SO | 63 | 0.0 |
| 12.12.2025 | 13:10 | 6.6 | 97 | 6.2 | 1023.0 | 0.0 | SO | 58 | 0.0 |
| 12.12.2025 | 13:20 | 6.6 | 97 | 6.2 | 1023.0 | 0.0 | SSO | 49 | 0.0 |
| 12.12.2025 | 13:30 | 6.6 | 97 | 6.2 | 1023.1 | 0.0 | SO | 54 | 0.0 |
| 12.12.2025 | 13:40 | 6.7 | 97 | 6.3 | 1023.1 | 0.0 | SO | 60 | 0.0 |
| 12.12.2025 | 13:50 | 6.6 | 97 | 6.2 | 1023.1 | 0.0 | SO | 54 | 0.0 |
| 12.12.2025 | 14:00 | 6.6 | 97 | 6.2 | 1023.1 | 0.0 | SO | 40 | 0.0 |
| 12.12.2025 | 14:10 | 6.6 | 97 | 6.2 | 1023.1 | 0.0 | SO | 40 | 0.0 |
| 12.12.2025 | 14:20 | 6.5 | 97 | 6.1 | 1023.0 | 0.0 | SO | 40 | 0.0 |
| 12.12.2025 | 14:30 | 6.6 | 97 | 6.2 | 1023.2 | 0.0 | OSO | 30 | 0.0 |
| 12.12.2025 | 14:40 | 6.6 | 97 | 6.2 | 1023.2 | 0.0 | SO | 32 | 0.0 |
| 12.12.2025 | 14:50 | 6.5 | 97 | 6.1 | 1023.3 | 0.0 | SO | 42 | 0.0 |
| 12.12.2025 | 15:00 | 6.6 | 97 | 6.2 | 1023.3 | 0.0 | SO | 33 | 0.0 |
| 12.12.2025 | 15:10 | 6.6 | 97 | 6.2 | 1023.4 | 0.0 | SO | 33 | 0.0 |
| 12.12.2025 | 15:20 | 6.6 | 97 | 6.2 | 1023.4 | 0.0 | OSO | 28 | 0.0 |
| 12.12.2025 | 15:30 | 6.6 | 97 | 6.2 | 1023.4 | 0.0 | OSO | 21 | 0.0 |
| 12.12.2025 | 15:40 | 6.5 | 97 | 6.1 | 1023.5 | 0.0 | SO | 16 | 0.0 |
| 12.12.2025 | 15:50 | 6.5 | 97 | 6.1 | 1023.6 | 0.0 | SSO | 11 | 0.0 |
| 12.12.2025 | 16:00 | 6.5 | 97 | 6.1 | 1023.7 | 0.0 | SO | 7 | 0.0 |
| 12.12.2025 | 16:10 | 6.4 | 97 | 6.0 | 1023.6 | 0.0 | SO | 0 | 0.0 |
| 12.12.2025 | 16:20 | 6.4 | 97 | 6.0 | 1023.7 | 0.0 | O | 0 | 0.0 |
| 12.12.2025 | 16:30 | 6.4 | 97 | 6.0 | 1023.6 | 0.0 | OSO | 0 | 0.0 |
| 12.12.2025 | 16:40 | 6.3 | 97 | 5.9 | 1023.6 | 0.0 | OSO | 0 | 0.0 |
| 12.12.2025 | 16:50 | 6.3 | 97 | 5.9 | 1023.8 | 0.0 | OSO | 0 | 0.0 |
| 12.12.2025 | 17:00 | 6.3 | 97 | 5.9 | 1023.7 | 0.0 | OSO | 0 | 0.0 |
| 12.12.2025 | 17:10 | 6.3 | 97 | 5.9 | 1023.9 | 0.0 | SO | 0 | 0.0 |
| 12.12.2025 | 17:20 | 6.3 | 97 | 5.9 | 1023.8 | 0.0 | OSO | 0 | 0.0 |
| 12.12.2025 | 17:30 | 6.3 | 97 | 5.9 | 1023.9 | 0.0 | O | 0 | 0.0 |
| 12.12.2025 | 17:40 | 6.4 | 97 | 6.0 | 1023.8 | 0.0 | OSO | 0 | 0.0 |
| 12.12.2025 | 17:50 | 6.4 | 97 | 6.0 | 1024.0 | 0.0 | OSO | 0 | 0.0 |
| 12.12.2025 | 18:00 | 6.6 | 97 | 6.2 | 1024.1 | 0.0 | SO | 0 | 0.0 |
| 12.12.2025 | 18:10 | 6.7 | 97 | 6.3 | 1024.3 | 0.0 | SO | 0 | 0.0 |
| 12.12.2025 | 18:20 | 6.7 | 97 | 6.3 | 1024.2 | 0.0 | SO | 0 | 0.0 |
| 12.12.2025 | 18:30 | 6.7 | 97 | 6.3 | 1024.3 | 1.4 | O | 0 | 0.0 |
| 12.12.2025 | 18:40 | 6.7 | 97 | 6.3 | 1024.4 | 0.0 | SO | 0 | 0.0 |
| 12.12.2025 | 18:50 | 6.7 | 97 | 6.3 | 1024.2 | 0.0 | SO | 0 | 0.0 |
| 12.12.2025 | 19:00 | 6.6 | 97 | 6.2 | 1024.3 | 1.4 | O | 0 | 0.0 |
| 12.12.2025 | 19:10 | 6.6 | 97 | 6.2 | 1024.6 | 0.0 | OSO | 0 | 0.0 |
| 12.12.2025 | 19:20 | 6.6 | 98 | 6.3 | 1024.4 | 0.0 | OSO | 0 | 0.0 |
| 12.12.2025 | 19:30 | 6.7 | 98 | 6.4 | 1024.7 | 0.0 | OSO | 0 | 0.0 |
| 12.12.2025 | 19:40 | 6.7 | 98 | 6.4 | 1024.7 | 0.0 | OSO | 0 | 0.0 |
| 12.12.2025 | 19:50 | 6.7 | 98 | 6.4 | 1024.7 | 0.0 | SO | 0 | 0.0 |
| 12.12.2025 | 20:00 | 6.7 | 98 | 6.4 | 1024.9 | 0.0 | SO | 0 | 0.0 |
| 12.12.2025 | 20:10 | 6.7 | 98 | 6.4 | 1024.9 | 0.0 | SO | 0 | 0.0 |
| 12.12.2025 | 20:20 | 6.8 | 97 | 6.4 | 1025.1 | 0.0 | SO | 0 | 0.0 |
| 12.12.2025 | 20:30 | 6.8 | 97 | 6.4 | 1025.1 | 0.0 | SO | 0 | 0.0 |
| 12.12.2025 | 20:40 | 6.8 | 97 | 6.4 | 1025.2 | 0.0 | SO | 0 | 0.0 |
| 12.12.2025 | 20:50 | 6.8 | 97 | 6.4 | 1025.2 | 0.0 | SO | 0 | 0.0 |
| 12.12.2025 | 21:00 | 6.8 | 97 | 6.4 | 1025.3 | 0.0 | SO | 0 | 0.0 |
| 12.12.2025 | 21:10 | 6.8 | 97 | 6.4 | 1025.5 | 0.0 | SO | 0 | 0.0 |
| 12.12.2025 | 21:20 | 6.9 | 97 | 6.5 | 1025.7 | 0.0 | SO | 0 | 0.0 |
| 12.12.2025 | 21:30 | 6.9 | 97 | 6.5 | 1025.7 | 0.0 | SO | 0 | 0.0 |
| 12.12.2025 | 21:40 | 6.9 | 98 | 6.6 | 1025.7 | 0.0 | SO | 0 | 0.0 |
| 12.12.2025 | 21:50 | 6.9 | 98 | 6.6 | 1025.7 | 0.0 | SO | 0 | 0.0 |
| 12.12.2025 | 22:00 | 6.9 | 98 | 6.6 | 1025.8 | 0.0 | SO | 0 | 0.0 |
| 12.12.2025 | 22:10 | 6.9 | 98 | 6.6 | 1025.9 | 0.0 | SO | 0 | 0.0 |
| 12.12.2025 | 22:20 | 6.9 | 98 | 6.6 | 1025.8 | 0.0 | SO | 0 | 0.0 |
| 12.12.2025 | 22:30 | 6.9 | 98 | 6.6 | 1025.9 | 0.0 | SO | 0 | 0.0 |
| 12.12.2025 | 22:40 | 6.9 | 98 | 6.6 | 1025.9 | 0.0 | SO | 0 | 0.0 |
| 12.12.2025 | 22:50 | 6.9 | 98 | 6.6 | 1025.9 | 0.0 | SO | 0 | 0.0 |
| 12.12.2025 | 23:00 | 7.1 | 98 | 6.8 | 1026.0 | 0.0 | SO | 0 | 0.0 |
| 12.12.2025 | 23:10 | 6.9 | 98 | 6.6 | 1026.1 | 0.0 | SO | 0 | 0.0 |
| 12.12.2025 | 23:20 | 6.9 | 98 | 6.6 | 1026.0 | 0.0 | SSO | 0 | 0.0 |
| 12.12.2025 | 23:30 | 6.9 | 97 | 6.5 | 1026.2 | 0.0 | SSO | 0 | 0.0 |
| 12.12.2025 | 23:40 | 6.9 | 97 | 6.5 | 1026.2 | 0.0 | SSO | 0 | 0.0 |
| 12.12.2025 | 23:50 | 6.9 | 97 | 6.5 | 1026.2 | 0.0 | OSO | 0 | 0.0 |